sensor_id;sensor_type;location;lat;lon;timestamp;P1;durP1;ratioP1;P2;durP2;ratioP2
60730;SDS011;46580;52.114;11.674;2023-06-24T00:02:18;22.53;;;15.03;;
60730;SDS011;46580;52.114;11.674;2023-06-24T00:04:43;17.00;;;13.63;;
60730;SDS011;46580;52.114;11.674;2023-06-24T00:07:08;21.70;;;14.60;;
60730;SDS011;46580;52.114;11.674;2023-06-24T00:09:33;21.53;;;14.67;;
60730;SDS011;46580;52.114;11.674;2023-06-24T00:11:59;19.50;;;14.30;;
60730;SDS011;46580;52.114;11.674;2023-06-24T00:14:24;18.40;;;13.67;;
60730;SDS011;46580;52.114;11.674;2023-06-24T00:16:51;20.93;;;13.57;;
60730;SDS011;46580;52.114;11.674;2023-06-24T00:19:19;16.80;;;13.00;;
60730;SDS011;46580;52.114;11.674;2023-06-24T00:21:45;20.87;;;12.70;;
60730;SDS011;46580;52.114;11.674;2023-06-24T00:24:11;17.93;;;11.57;;
60730;SDS011;46580;52.114;11.674;2023-06-24T00:26:36;16.33;;;10.43;;
60730;SDS011;46580;52.114;11.674;2023-06-24T00:29:01;15.90;;;10.00;;
60730;SDS011;46580;52.114;11.674;2023-06-24T00:31:26;12.97;;;9.53;;
60730;SDS011;46580;52.114;11.674;2023-06-24T00:33:51;11.03;;;8.50;;
60730;SDS011;46580;52.114;11.674;2023-06-24T00:36:17;13.20;;;7.77;;
60730;SDS011;46580;52.114;11.674;2023-06-24T00:38:43;12.17;;;8.20;;
60730;SDS011;46580;52.114;11.674;2023-06-24T00:41:08;11.93;;;7.70;;
60730;SDS011;46580;52.114;11.674;2023-06-24T00:43:34;10.87;;;7.67;;
60730;SDS011;46580;52.114;11.674;2023-06-24T00:45:59;12.20;;;7.37;;
60730;SDS011;46580;52.114;11.674;2023-06-24T00:48:25;10.37;;;7.23;;
60730;SDS011;46580;52.114;11.674;2023-06-24T00:50:50;6.87;;;6.17;;
60730;SDS011;46580;52.114;11.674;2023-06-24T00:53:16;9.93;;;6.50;;
60730;SDS011;46580;52.114;11.674;2023-06-24T00:55:41;7.97;;;5.63;;
60730;SDS011;46580;52.114;11.674;2023-06-24T00:58:07;8.60;;;6.27;;
60730;SDS011;46580;52.114;11.674;2023-06-24T01:00:32;7.67;;;5.23;;
60730;SDS011;46580;52.114;11.674;2023-06-24T01:02:59;8.97;;;5.77;;
60730;SDS011;46580;52.114;11.674;2023-06-24T01:05:25;10.23;;;6.43;;
60730;SDS011;46580;52.114;11.674;2023-06-24T01:07:51;9.00;;;6.07;;
60730;SDS011;46580;52.114;11.674;2023-06-24T01:10:20;9.30;;;6.13;;
60730;SDS011;46580;52.114;11.674;2023-06-24T01:12:46;10.70;;;5.93;;
60730;SDS011;46580;52.114;11.674;2023-06-24T01:15:11;9.83;;;6.07;;
60730;SDS011;46580;52.114;11.674;2023-06-24T01:20:10;6.93;;;5.57;;
60730;SDS011;46580;52.114;11.674;2023-06-24T01:30:36;10.17;;;7.17;;
60730;SDS011;46580;52.114;11.674;2023-06-24T01:33:07;11.77;;;6.90;;
60730;SDS011;46580;52.114;11.674;2023-06-24T01:35:33;10.13;;;7.03;;
60730;SDS011;46580;52.114;11.674;2023-06-24T01:38:01;10.90;;;7.57;;
60730;SDS011;46580;52.114;11.674;2023-06-24T01:40:31;10.90;;;7.33;;
60730;SDS011;46580;52.114;11.674;2023-06-24T01:42:57;10.63;;;8.07;;
60730;SDS011;46580;52.114;11.674;2023-06-24T01:45:24;12.07;;;7.80;;
60730;SDS011;46580;52.114;11.674;2023-06-24T01:47:53;13.77;;;8.07;;
60730;SDS011;46580;52.114;11.674;2023-06-24T01:50:20;12.37;;;8.83;;
60730;SDS011;46580;52.114;11.674;2023-06-24T01:52:47;11.63;;;8.37;;
60730;SDS011;46580;52.114;11.674;2023-06-24T01:55:15;14.93;;;8.47;;
60730;SDS011;46580;52.114;11.674;2023-06-24T01:57:41;15.63;;;8.23;;
60730;SDS011;46580;52.114;11.674;2023-06-24T02:00:08;10.17;;;8.20;;
60730;SDS011;46580;52.114;11.674;2023-06-24T02:02:34;15.30;;;9.13;;
60730;SDS011;46580;52.114;11.674;2023-06-24T02:05:00;13.13;;;8.67;;
60730;SDS011;46580;52.114;11.674;2023-06-24T02:07:26;12.30;;;8.80;;
60730;SDS011;46580;52.114;11.674;2023-06-24T02:09:54;12.63;;;9.70;;
60730;SDS011;46580;52.114;11.674;2023-06-24T02:12:20;11.87;;;9.73;;
60730;SDS011;46580;52.114;11.674;2023-06-24T02:14:45;16.27;;;9.10;;
60730;SDS011;46580;52.114;11.674;2023-06-24T02:17:12;15.40;;;9.33;;
60730;SDS011;46580;52.114;11.674;2023-06-24T02:19:38;11.53;;;9.63;;
60730;SDS011;46580;52.114;11.674;2023-06-24T02:22:04;11.60;;;8.97;;
60730;SDS011;46580;52.114;11.674;2023-06-24T02:24:34;11.03;;;9.50;;
60730;SDS011;46580;52.114;11.674;2023-06-24T02:27:00;13.10;;;9.37;;
60730;SDS011;46580;52.114;11.674;2023-06-24T02:29:26;14.57;;;9.23;;
60730;SDS011;46580;52.114;11.674;2023-06-24T02:31:52;15.43;;;9.50;;
60730;SDS011;46580;52.114;11.674;2023-06-24T02:34:17;16.60;;;9.60;;
60730;SDS011;46580;52.114;11.674;2023-06-24T02:36:43;18.73;;;9.57;;
60730;SDS011;46580;52.114;11.674;2023-06-24T02:39:08;12.17;;;9.30;;
60730;SDS011;46580;52.114;11.674;2023-06-24T02:41:33;15.40;;;10.60;;
60730;SDS011;46580;52.114;11.674;2023-06-24T02:43:58;13.73;;;9.97;;
60730;SDS011;46580;52.114;11.674;2023-06-24T02:46:24;15.50;;;10.07;;
60730;SDS011;46580;52.114;11.674;2023-06-24T02:48:50;17.30;;;10.90;;
60730;SDS011;46580;52.114;11.674;2023-06-24T02:51:16;12.90;;;10.10;;
60730;SDS011;46580;52.114;11.674;2023-06-24T02:53:41;15.80;;;10.97;;
60730;SDS011;46580;52.114;11.674;2023-06-24T02:56:07;15.37;;;10.73;;
60730;SDS011;46580;52.114;11.674;2023-06-24T02:58:33;14.60;;;10.70;;
60730;SDS011;46580;52.114;11.674;2023-06-24T03:00:59;14.73;;;10.60;;
60730;SDS011;46580;52.114;11.674;2023-06-24T03:03:25;15.20;;;10.80;;
60730;SDS011;46580;52.114;11.674;2023-06-24T03:05:51;16.90;;;10.50;;
60730;SDS011;46580;52.114;11.674;2023-06-24T03:08:18;16.07;;;11.07;;
60730;SDS011;46580;52.114;11.674;2023-06-24T03:10:44;16.70;;;10.87;;
60730;SDS011;46580;52.114;11.674;2023-06-24T03:13:09;16.60;;;10.43;;
60730;SDS011;46580;52.114;11.674;2023-06-24T03:15:34;20.13;;;11.07;;
60730;SDS011;46580;52.114;11.674;2023-06-24T03:17:59;16.10;;;10.17;;
60730;SDS011;46580;52.114;11.674;2023-06-24T03:20:24;16.23;;;11.63;;
60730;SDS011;46580;52.114;11.674;2023-06-24T03:22:50;16.40;;;11.27;;
60730;SDS011;46580;52.114;11.674;2023-06-24T03:25:17;15.93;;;9.77;;
60730;SDS011;46580;52.114;11.674;2023-06-24T03:27:42;19.17;;;11.60;;
60730;SDS011;46580;52.114;11.674;2023-06-24T03:30:07;14.23;;;10.37;;
60730;SDS011;46580;52.114;11.674;2023-06-24T03:32:33;18.20;;;11.27;;
60730;SDS011;46580;52.114;11.674;2023-06-24T03:35:02;15.87;;;10.87;;
60730;SDS011;46580;52.114;11.674;2023-06-24T03:37:27;16.43;;;10.93;;
60730;SDS011;46580;52.114;11.674;2023-06-24T03:39:52;17.23;;;10.63;;
60730;SDS011;46580;52.114;11.674;2023-06-24T03:42:17;15.33;;;10.50;;
60730;SDS011;46580;52.114;11.674;2023-06-24T03:44:43;16.03;;;10.70;;
60730;SDS011;46580;52.114;11.674;2023-06-24T03:47:09;18.70;;;11.17;;
60730;SDS011;46580;52.114;11.674;2023-06-24T03:49:34;17.63;;;11.47;;
60730;SDS011;46580;52.114;11.674;2023-06-24T03:51:59;18.33;;;10.40;;
60730;SDS011;46580;52.114;11.674;2023-06-24T03:54:24;19.53;;;11.13;;
60730;SDS011;46580;52.114;11.674;2023-06-24T03:56:49;16.07;;;10.60;;
60730;SDS011;46580;52.114;11.674;2023-06-24T03:59:15;16.60;;;11.17;;
60730;SDS011;46580;52.114;11.674;2023-06-24T04:01:40;18.53;;;10.97;;
60730;SDS011;46580;52.114;11.674;2023-06-24T04:04:05;15.47;;;10.73;;
60730;SDS011;46580;52.114;11.674;2023-06-24T04:06:30;18.60;;;11.43;;
60730;SDS011;46580;52.114;11.674;2023-06-24T04:08:56;15.83;;;11.73;;
60730;SDS011;46580;52.114;11.674;2023-06-24T04:11:21;17.67;;;10.10;;
60730;SDS011;46580;52.114;11.674;2023-06-24T04:13:46;18.43;;;10.90;;
60730;SDS011;46580;52.114;11.674;2023-06-24T04:16:13;18.77;;;10.87;;
60730;SDS011;46580;52.114;11.674;2023-06-24T04:18:38;14.70;;;10.80;;
60730;SDS011;46580;52.114;11.674;2023-06-24T04:21:04;18.20;;;10.73;;
60730;SDS011;46580;52.114;11.674;2023-06-24T04:23:31;17.57;;;11.53;;
60730;SDS011;46580;52.114;11.674;2023-06-24T04:25:56;15.03;;;10.97;;
60730;SDS011;46580;52.114;11.674;2023-06-24T04:28:21;19.57;;;11.43;;
60730;SDS011;46580;52.114;11.674;2023-06-24T04:30:47;18.13;;;11.20;;
60730;SDS011;46580;52.114;11.674;2023-06-24T04:33:12;15.77;;;10.90;;
60730;SDS011;46580;52.114;11.674;2023-06-24T04:35:37;18.47;;;11.10;;
60730;SDS011;46580;52.114;11.674;2023-06-24T04:38:02;18.97;;;11.57;;
60730;SDS011;46580;52.114;11.674;2023-06-24T04:40:28;16.70;;;11.50;;
60730;SDS011;46580;52.114;11.674;2023-06-24T04:42:53;22.83;;;12.20;;
60730;SDS011;46580;52.114;11.674;2023-06-24T04:45:18;15.67;;;11.47;;
60730;SDS011;46580;52.114;11.674;2023-06-24T04:47:43;21.07;;;11.10;;
60730;SDS011;46580;52.114;11.674;2023-06-24T04:50:09;21.27;;;11.90;;
60730;SDS011;46580;52.114;11.674;2023-06-24T04:52:35;22.70;;;11.63;;
60730;SDS011;46580;52.114;11.674;2023-06-24T04:55:00;20.67;;;11.27;;
60730;SDS011;46580;52.114;11.674;2023-06-24T04:57:29;16.60;;;11.63;;
60730;SDS011;46580;52.114;11.674;2023-06-24T04:59:55;15.47;;;10.93;;
60730;SDS011;46580;52.114;11.674;2023-06-24T05:02:20;15.40;;;10.80;;
60730;SDS011;46580;52.114;11.674;2023-06-24T05:04:45;15.63;;;11.20;;
60730;SDS011;46580;52.114;11.674;2023-06-24T05:07:10;14.17;;;10.40;;
60730;SDS011;46580;52.114;11.674;2023-06-24T05:09:36;17.27;;;10.23;;
60730;SDS011;46580;52.114;11.674;2023-06-24T05:12:03;18.13;;;10.73;;
60730;SDS011;46580;52.114;11.674;2023-06-24T05:14:28;13.93;;;10.23;;
60730;SDS011;46580;52.114;11.674;2023-06-24T05:16:53;16.57;;;10.13;;
60730;SDS011;46580;52.114;11.674;2023-06-24T05:19:19;16.83;;;10.27;;
60730;SDS011;46580;52.114;11.674;2023-06-24T05:21:44;17.73;;;10.20;;
60730;SDS011;46580;52.114;11.674;2023-06-24T05:24:09;15.43;;;10.60;;
60730;SDS011;46580;52.114;11.674;2023-06-24T05:26:34;20.73;;;10.83;;
60730;SDS011;46580;52.114;11.674;2023-06-24T05:28:59;15.17;;;10.37;;
60730;SDS011;46580;52.114;11.674;2023-06-24T05:31:25;16.20;;;9.77;;
60730;SDS011;46580;52.114;11.674;2023-06-24T05:33:50;14.13;;;9.67;;
60730;SDS011;46580;52.114;11.674;2023-06-24T05:36:15;17.37;;;10.80;;
60730;SDS011;46580;52.114;11.674;2023-06-24T05:38:40;15.77;;;9.83;;
60730;SDS011;46580;52.114;11.674;2023-06-24T05:41:05;16.83;;;9.73;;
60730;SDS011;46580;52.114;11.674;2023-06-24T05:43:31;18.33;;;8.87;;
60730;SDS011;46580;52.114;11.674;2023-06-24T05:45:56;15.60;;;10.00;;
60730;SDS011;46580;52.114;11.674;2023-06-24T05:48:21;18.27;;;9.57;;
60730;SDS011;46580;52.114;11.674;2023-06-24T05:50:46;17.33;;;10.47;;
60730;SDS011;46580;52.114;11.674;2023-06-24T05:53:12;16.80;;;10.10;;
60730;SDS011;46580;52.114;11.674;2023-06-24T05:55:37;19.07;;;9.97;;
60730;SDS011;46580;52.114;11.674;2023-06-24T05:58:02;14.50;;;10.13;;
60730;SDS011;46580;52.114;11.674;2023-06-24T06:00:27;12.63;;;10.30;;
60730;SDS011;46580;52.114;11.674;2023-06-24T06:02:52;17.17;;;11.17;;
60730;SDS011;46580;52.114;11.674;2023-06-24T06:05:18;17.00;;;11.13;;
60730;SDS011;46580;52.114;11.674;2023-06-24T06:07:43;17.37;;;11.67;;
60730;SDS011;46580;52.114;11.674;2023-06-24T06:10:08;18.23;;;11.13;;
60730;SDS011;46580;52.114;11.674;2023-06-24T06:12:34;18.50;;;10.77;;
60730;SDS011;46580;52.114;11.674;2023-06-24T06:14:59;15.20;;;11.03;;
60730;SDS011;46580;52.114;11.674;2023-06-24T06:17:24;18.53;;;11.03;;
60730;SDS011;46580;52.114;11.674;2023-06-24T06:19:50;17.20;;;10.93;;
60730;SDS011;46580;52.114;11.674;2023-06-24T06:22:15;18.27;;;10.93;;
60730;SDS011;46580;52.114;11.674;2023-06-24T06:24:40;17.80;;;11.20;;
60730;SDS011;46580;52.114;11.674;2023-06-24T06:27:09;20.90;;;11.13;;
60730;SDS011;46580;52.114;11.674;2023-06-24T06:29:34;17.30;;;10.17;;
60730;SDS011;46580;52.114;11.674;2023-06-24T06:31:59;16.10;;;11.17;;
60730;SDS011;46580;52.114;11.674;2023-06-24T06:34:24;19.03;;;11.50;;
60730;SDS011;46580;52.114;11.674;2023-06-24T06:36:49;18.03;;;12.00;;
60730;SDS011;46580;52.114;11.674;2023-06-24T06:39:15;18.00;;;12.33;;
60730;SDS011;46580;52.114;11.674;2023-06-24T06:41:40;17.33;;;11.93;;
60730;SDS011;46580;52.114;11.674;2023-06-24T06:44:05;17.83;;;12.17;;
60730;SDS011;46580;52.114;11.674;2023-06-24T06:46:30;21.47;;;11.93;;
60730;SDS011;46580;52.114;11.674;2023-06-24T06:48:56;15.47;;;11.60;;
60730;SDS011;46580;52.114;11.674;2023-06-24T06:51:21;19.50;;;12.40;;
60730;SDS011;46580;52.114;11.674;2023-06-24T06:53:46;15.90;;;10.87;;
60730;SDS011;46580;52.114;11.674;2023-06-24T06:56:24;16.00;;;11.93;;
60730;SDS011;46580;52.114;11.674;2023-06-24T06:58:50;17.20;;;11.53;;
60730;SDS011;46580;52.114;11.674;2023-06-24T07:01:15;15.20;;;12.40;;
60730;SDS011;46580;52.114;11.674;2023-06-24T07:03:40;21.73;;;13.07;;
60730;SDS011;46580;52.114;11.674;2023-06-24T07:06:05;16.93;;;12.63;;
60730;SDS011;46580;52.114;11.674;2023-06-24T07:08:31;16.57;;;12.40;;
60730;SDS011;46580;52.114;11.674;2023-06-24T07:10:56;18.90;;;12.67;;
60730;SDS011;46580;52.114;11.674;2023-06-24T07:13:21;15.83;;;11.43;;
60730;SDS011;46580;52.114;11.674;2023-06-24T07:15:46;15.37;;;10.40;;
60730;SDS011;46580;52.114;11.674;2023-06-24T07:18:12;12.93;;;9.67;;
60730;SDS011;46580;52.114;11.674;2023-06-24T07:20:37;14.30;;;11.20;;
60730;SDS011;46580;52.114;11.674;2023-06-24T07:23:02;15.30;;;10.53;;
60730;SDS011;46580;52.114;11.674;2023-06-24T07:25:28;16.53;;;11.17;;
60730;SDS011;46580;52.114;11.674;2023-06-24T07:27:54;17.53;;;10.80;;
60730;SDS011;46580;52.114;11.674;2023-06-24T07:30:19;9.77;;;8.30;;
60730;SDS011;46580;52.114;11.674;2023-06-24T07:32:45;12.17;;;8.77;;
60730;SDS011;46580;52.114;11.674;2023-06-24T07:35:10;9.80;;;7.77;;
60730;SDS011;46580;52.114;11.674;2023-06-24T07:37:35;13.67;;;9.13;;
60730;SDS011;46580;52.114;11.674;2023-06-24T07:40:01;10.07;;;7.77;;
60730;SDS011;46580;52.114;11.674;2023-06-24T07:42:27;9.93;;;7.73;;
60730;SDS011;46580;52.114;11.674;2023-06-24T07:44:52;12.97;;;8.50;;
60730;SDS011;46580;52.114;11.674;2023-06-24T07:47:22;10.37;;;8.33;;
60730;SDS011;46580;52.114;11.674;2023-06-24T07:49:48;9.80;;;8.17;;
60730;SDS011;46580;52.114;11.674;2023-06-24T07:52:13;9.60;;;5.90;;
60730;SDS011;46580;52.114;11.674;2023-06-24T07:54:39;8.63;;;6.30;;
60730;SDS011;46580;52.114;11.674;2023-06-24T07:57:06;8.93;;;6.17;;
60730;SDS011;46580;52.114;11.674;2023-06-24T07:59:31;8.77;;;6.13;;
60730;SDS011;46580;52.114;11.674;2023-06-24T08:01:56;6.97;;;6.27;;
60730;SDS011;46580;52.114;11.674;2023-06-24T08:04:22;11.50;;;6.77;;
60730;SDS011;46580;52.114;11.674;2023-06-24T08:06:47;11.13;;;6.30;;
60730;SDS011;46580;52.114;11.674;2023-06-24T08:09:12;9.70;;;6.40;;
60730;SDS011;46580;52.114;11.674;2023-06-24T08:11:38;8.53;;;6.47;;
60730;SDS011;46580;52.114;11.674;2023-06-24T08:14:03;9.20;;;6.70;;
60730;SDS011;46580;52.114;11.674;2023-06-24T08:16:29;10.03;;;6.70;;
60730;SDS011;46580;52.114;11.674;2023-06-24T08:18:54;9.57;;;6.53;;
60730;SDS011;46580;52.114;11.674;2023-06-24T08:21:19;12.67;;;6.87;;
60730;SDS011;46580;52.114;11.674;2023-06-24T08:23:45;7.00;;;5.87;;
60730;SDS011;46580;52.114;11.674;2023-06-24T08:26:10;11.07;;;6.40;;
60730;SDS011;46580;52.114;11.674;2023-06-24T08:28:36;8.07;;;5.87;;
60730;SDS011;46580;52.114;11.674;2023-06-24T08:31:01;7.00;;;5.47;;
60730;SDS011;46580;52.114;11.674;2023-06-24T08:33:26;8.13;;;6.83;;
60730;SDS011;46580;52.114;11.674;2023-06-24T08:35:51;9.33;;;6.23;;
60730;SDS011;46580;52.114;11.674;2023-06-24T08:38:16;9.33;;;6.00;;
60730;SDS011;46580;52.114;11.674;2023-06-24T08:40:42;6.83;;;6.13;;
60730;SDS011;46580;52.114;11.674;2023-06-24T08:43:08;7.47;;;4.77;;
60730;SDS011;46580;52.114;11.674;2023-06-24T08:45:33;8.03;;;4.90;;
60730;SDS011;46580;52.114;11.674;2023-06-24T08:47:59;8.20;;;5.60;;
60730;SDS011;46580;52.114;11.674;2023-06-24T08:50:27;7.87;;;5.90;;
60730;SDS011;46580;52.114;11.674;2023-06-24T08:52:52;9.40;;;7.23;;
60730;SDS011;46580;52.114;11.674;2023-06-24T08:55:19;7.77;;;5.97;;
60730;SDS011;46580;52.114;11.674;2023-06-24T08:57:45;8.53;;;6.10;;
60730;SDS011;46580;52.114;11.674;2023-06-24T09:00:11;8.50;;;5.60;;
60730;SDS011;46580;52.114;11.674;2023-06-24T09:02:37;6.93;;;5.47;;
60730;SDS011;46580;52.114;11.674;2023-06-24T09:05:04;6.00;;;4.77;;
60730;SDS011;46580;52.114;11.674;2023-06-24T09:07:29;7.47;;;5.13;;
60730;SDS011;46580;52.114;11.674;2023-06-24T09:09:54;5.73;;;4.50;;
60730;SDS011;46580;52.114;11.674;2023-06-24T09:12:20;9.23;;;5.47;;
60730;SDS011;46580;52.114;11.674;2023-06-24T09:14:47;9.27;;;6.00;;
60730;SDS011;46580;52.114;11.674;2023-06-24T09:17:13;7.43;;;5.67;;
60730;SDS011;46580;52.114;11.674;2023-06-24T09:19:38;9.00;;;4.57;;
60730;SDS011;46580;52.114;11.674;2023-06-24T09:22:05;7.33;;;5.20;;
60730;SDS011;46580;52.114;11.674;2023-06-24T09:24:30;6.27;;;5.20;;
60730;SDS011;46580;52.114;11.674;2023-06-24T09:26:56;5.63;;;5.10;;
60730;SDS011;46580;52.114;11.674;2023-06-24T09:29:22;5.63;;;4.20;;
60730;SDS011;46580;52.114;11.674;2023-06-24T09:31:50;9.13;;;3.30;;
60730;SDS011;46580;52.114;11.674;2023-06-24T09:34:18;5.00;;;3.10;;
60730;SDS011;46580;52.114;11.674;2023-06-24T09:36:44;4.93;;;2.97;;
60730;SDS011;46580;52.114;11.674;2023-06-24T09:39:09;7.13;;;4.23;;
60730;SDS011;46580;52.114;11.674;2023-06-24T09:41:35;5.23;;;3.73;;
60730;SDS011;46580;52.114;11.674;2023-06-24T09:44:01;10.40;;;3.77;;
60730;SDS011;46580;52.114;11.674;2023-06-24T09:46:27;4.90;;;3.67;;
60730;SDS011;46580;52.114;11.674;2023-06-24T09:48:52;5.43;;;3.60;;
60730;SDS011;46580;52.114;11.674;2023-06-24T09:51:18;3.73;;;3.43;;
60730;SDS011;46580;52.114;11.674;2023-06-24T09:53:43;4.07;;;3.43;;
60730;SDS011;46580;52.114;11.674;2023-06-24T09:56:11;4.67;;;3.33;;
60730;SDS011;46580;52.114;11.674;2023-06-24T09:58:38;4.80;;;3.57;;
60730;SDS011;46580;52.114;11.674;2023-06-24T10:01:06;5.67;;;4.00;;
60730;SDS011;46580;52.114;11.674;2023-06-24T10:03:32;6.27;;;4.17;;
60730;SDS011;46580;52.114;11.674;2023-06-24T10:05:57;4.87;;;3.87;;
60730;SDS011;46580;52.114;11.674;2023-06-24T10:08:23;3.87;;;3.47;;
60730;SDS011;46580;52.114;11.674;2023-06-24T10:10:48;6.07;;;4.50;;
60730;SDS011;46580;52.114;11.674;2023-06-24T10:13:14;5.47;;;3.60;;
60730;SDS011;46580;52.114;11.674;2023-06-24T10:15:39;5.27;;;2.97;;
60730;SDS011;46580;52.114;11.674;2023-06-24T10:18:50;4.77;;;3.43;;
60730;SDS011;46580;52.114;11.674;2023-06-24T10:20:50;5.03;;;3.17;;
60730;SDS011;46580;52.114;11.674;2023-06-24T10:23:15;5.50;;;3.60;;
60730;SDS011;46580;52.114;11.674;2023-06-24T10:25:40;4.90;;;3.77;;
60730;SDS011;46580;52.114;11.674;2023-06-24T10:28:06;4.73;;;3.50;;
60730;SDS011;46580;52.114;11.674;2023-06-24T10:30:31;4.33;;;3.27;;
60730;SDS011;46580;52.114;11.674;2023-06-24T10:32:58;5.93;;;3.30;;
60730;SDS011;46580;52.114;11.674;2023-06-24T10:35:27;10.80;;;3.73;;
60730;SDS011;46580;52.114;11.674;2023-06-24T10:38:01;9.13;;;3.70;;
60730;SDS011;46580;52.114;11.674;2023-06-24T10:40:35;8.43;;;3.63;;
60730;SDS011;46580;52.114;11.674;2023-06-24T10:45:58;2.77;;;2.47;;
60730;SDS011;46580;52.114;11.674;2023-06-24T10:48:24;3.17;;;2.53;;
60730;SDS011;46580;52.114;11.674;2023-06-24T10:50:49;5.90;;;3.00;;
60730;SDS011;46580;52.114;11.674;2023-06-24T10:53:14;2.90;;;2.57;;
60730;SDS011;46580;52.114;11.674;2023-06-24T10:55:40;2.50;;;2.30;;
60730;SDS011;46580;52.114;11.674;2023-06-24T10:58:12;3.57;;;2.20;;
60730;SDS011;46580;52.114;11.674;2023-06-24T11:00:41;3.30;;;2.37;;
60730;SDS011;46580;52.114;11.674;2023-06-24T11:05:38;5.07;;;2.90;;
60730;SDS011;46580;52.114;11.674;2023-06-24T11:08:05;5.77;;;2.90;;
60730;SDS011;46580;52.114;11.674;2023-06-24T11:10:30;8.07;;;3.07;;
60730;SDS011;46580;52.114;11.674;2023-06-24T11:12:55;4.20;;;2.90;;
60730;SDS011;46580;52.114;11.674;2023-06-24T11:15:22;3.20;;;2.57;;
60730;SDS011;46580;52.114;11.674;2023-06-24T11:17:50;3.77;;;2.87;;
60730;SDS011;46580;52.114;11.674;2023-06-24T11:20:15;4.33;;;2.80;;
60730;SDS011;46580;52.114;11.674;2023-06-24T11:22:41;3.50;;;2.87;;
60730;SDS011;46580;52.114;11.674;2023-06-24T11:25:13;4.17;;;2.50;;
60730;SDS011;46580;52.114;11.674;2023-06-24T11:27:39;4.40;;;2.83;;
60730;SDS011;46580;52.114;11.674;2023-06-24T11:30:04;3.57;;;2.77;;
60730;SDS011;46580;52.114;11.674;2023-06-24T11:32:38;3.43;;;2.53;;
60730;SDS011;46580;52.114;11.674;2023-06-24T11:35:04;5.33;;;2.60;;
60730;SDS011;46580;52.114;11.674;2023-06-24T11:37:30;6.07;;;2.80;;
60730;SDS011;46580;52.114;11.674;2023-06-24T11:40:05;3.90;;;2.70;;
60730;SDS011;46580;52.114;11.674;2023-06-24T11:42:31;4.70;;;3.43;;
60730;SDS011;46580;52.114;11.674;2023-06-24T11:45:00;4.10;;;2.87;;
60730;SDS011;46580;52.114;11.674;2023-06-24T11:47:26;3.43;;;2.80;;
60730;SDS011;46580;52.114;11.674;2023-06-24T11:49:51;3.13;;;2.73;;
60730;SDS011;46580;52.114;11.674;2023-06-24T11:52:17;5.20;;;2.80;;
60730;SDS011;46580;52.114;11.674;2023-06-24T11:54:43;3.40;;;2.80;;
60730;SDS011;46580;52.114;11.674;2023-06-24T11:57:08;3.83;;;3.10;;
60730;SDS011;46580;52.114;11.674;2023-06-24T11:59:33;3.47;;;2.90;;
60730;SDS011;46580;52.114;11.674;2023-06-24T12:01:58;4.83;;;3.27;;
60730;SDS011;46580;52.114;11.674;2023-06-24T12:04:28;3.30;;;2.97;;
60730;SDS011;46580;52.114;11.674;2023-06-24T12:06:54;3.27;;;2.63;;
60730;SDS011;46580;52.114;11.674;2023-06-24T12:09:19;5.03;;;2.90;;
60730;SDS011;46580;52.114;11.674;2023-06-24T12:11:45;4.20;;;2.73;;
60730;SDS011;46580;52.114;11.674;2023-06-24T12:14:10;4.13;;;2.87;;
60730;SDS011;46580;52.114;11.674;2023-06-24T12:16:35;4.30;;;3.17;;
60730;SDS011;46580;52.114;11.674;2023-06-24T12:19:00;4.40;;;2.77;;
60730;SDS011;46580;52.114;11.674;2023-06-24T12:21:25;3.47;;;3.10;;
60730;SDS011;46580;52.114;11.674;2023-06-24T12:23:51;7.30;;;3.00;;
60730;SDS011;46580;52.114;11.674;2023-06-24T12:26:16;3.43;;;2.47;;
60730;SDS011;46580;52.114;11.674;2023-06-24T12:28:41;3.50;;;2.73;;
60730;SDS011;46580;52.114;11.674;2023-06-24T12:31:06;4.77;;;2.97;;
60730;SDS011;46580;52.114;11.674;2023-06-24T12:33:31;5.83;;;2.70;;
60730;SDS011;46580;52.114;11.674;2023-06-24T12:35:56;4.27;;;2.80;;
60730;SDS011;46580;52.114;11.674;2023-06-24T12:38:22;4.13;;;3.03;;
60730;SDS011;46580;52.114;11.674;2023-06-24T12:40:47;3.60;;;2.93;;
60730;SDS011;46580;52.114;11.674;2023-06-24T12:43:13;4.97;;;2.47;;
60730;SDS011;46580;52.114;11.674;2023-06-24T12:45:38;3.87;;;2.90;;
60730;SDS011;46580;52.114;11.674;2023-06-24T12:48:03;4.97;;;2.80;;
60730;SDS011;46580;52.114;11.674;2023-06-24T12:50:29;3.83;;;2.87;;
60730;SDS011;46580;52.114;11.674;2023-06-24T12:52:56;3.97;;;2.70;;
60730;SDS011;46580;52.114;11.674;2023-06-24T12:55:21;4.60;;;2.60;;
60730;SDS011;46580;52.114;11.674;2023-06-24T12:57:47;4.07;;;2.67;;
60730;SDS011;46580;52.114;11.674;2023-06-24T13:00:12;3.53;;;2.70;;
60730;SDS011;46580;52.114;11.674;2023-06-24T13:02:37;3.83;;;2.97;;
60730;SDS011;46580;52.114;11.674;2023-06-24T13:05:03;3.57;;;2.80;;
60730;SDS011;46580;52.114;11.674;2023-06-24T13:07:29;6.33;;;2.87;;
60730;SDS011;46580;52.114;11.674;2023-06-24T13:09:54;3.30;;;2.60;;
60730;SDS011;46580;52.114;11.674;2023-06-24T13:12:19;3.43;;;2.63;;
60730;SDS011;46580;52.114;11.674;2023-06-24T13:14:45;3.87;;;2.63;;
60730;SDS011;46580;52.114;11.674;2023-06-24T13:17:10;5.77;;;3.23;;
60730;SDS011;46580;52.114;11.674;2023-06-24T13:19:35;2.80;;;2.53;;
60730;SDS011;46580;52.114;11.674;2023-06-24T13:22:00;5.73;;;2.63;;
60730;SDS011;46580;52.114;11.674;2023-06-24T13:24:25;3.40;;;2.50;;
60730;SDS011;46580;52.114;11.674;2023-06-24T13:26:51;4.13;;;2.37;;
60730;SDS011;46580;52.114;11.674;2023-06-24T13:29:16;2.77;;;2.57;;
60730;SDS011;46580;52.114;11.674;2023-06-24T13:31:41;7.60;;;2.97;;
60730;SDS011;46580;52.114;11.674;2023-06-24T13:34:06;3.43;;;2.80;;
60730;SDS011;46580;52.114;11.674;2023-06-24T13:36:36;6.20;;;2.83;;
60730;SDS011;46580;52.114;11.674;2023-06-24T13:39:02;3.27;;;2.57;;
60730;SDS011;46580;52.114;11.674;2023-06-24T13:41:28;5.70;;;3.53;;
60730;SDS011;46580;52.114;11.674;2023-06-24T13:43:55;3.07;;;2.80;;
60730;SDS011;46580;52.114;11.674;2023-06-24T13:46:21;6.47;;;3.80;;
60730;SDS011;46580;52.114;11.674;2023-06-24T13:48:47;3.40;;;3.10;;
60730;SDS011;46580;52.114;11.674;2023-06-24T13:51:13;4.87;;;2.80;;
60730;SDS011;46580;52.114;11.674;2023-06-24T13:53:38;4.83;;;2.30;;
60730;SDS011;46580;52.114;11.674;2023-06-24T13:56:03;4.93;;;2.63;;
60730;SDS011;46580;52.114;11.674;2023-06-24T13:58:28;2.90;;;2.50;;
60730;SDS011;46580;52.114;11.674;2023-06-24T14:00:54;3.17;;;2.83;;
60730;SDS011;46580;52.114;11.674;2023-06-24T14:03:19;3.77;;;2.63;;
60730;SDS011;46580;52.114;11.674;2023-06-24T14:05:44;5.47;;;3.00;;
60730;SDS011;46580;52.114;11.674;2023-06-24T14:08:09;3.67;;;2.67;;
60730;SDS011;46580;52.114;11.674;2023-06-24T14:10:34;6.23;;;2.83;;
60730;SDS011;46580;52.114;11.674;2023-06-24T14:13:00;4.60;;;2.67;;
60730;SDS011;46580;52.114;11.674;2023-06-24T14:15:25;4.93;;;2.83;;
60730;SDS011;46580;52.114;11.674;2023-06-24T14:17:50;7.47;;;2.53;;
60730;SDS011;46580;52.114;11.674;2023-06-24T14:20:16;2.90;;;2.60;;
60730;SDS011;46580;52.114;11.674;2023-06-24T14:22:41;4.33;;;2.90;;
60730;SDS011;46580;52.114;11.674;2023-06-24T14:25:06;7.13;;;3.03;;
60730;SDS011;46580;52.114;11.674;2023-06-24T14:27:31;3.23;;;2.60;;
60730;SDS011;46580;52.114;11.674;2023-06-24T14:29:57;4.57;;;2.77;;
60730;SDS011;46580;52.114;11.674;2023-06-24T14:32:22;4.20;;;3.07;;